sensor_id;sensor_type;location;lat;lon;timestamp;P1;durP1;ratioP1;P2;durP2;ratioP2
35689;SDS011;26977;44.830;-0.674;2022-07-10T00:00:19;4.25;;;1.30;;
35689;SDS011;26977;44.830;-0.674;2022-07-10T00:02:46;2.95;;;1.30;;
35689;SDS011;26977;44.830;-0.674;2022-07-10T00:05:12;5.55;;;1.77;;
35689;SDS011;26977;44.830;-0.674;2022-07-10T00:07:38;3.92;;;1.40;;
35689;SDS011;26977;44.830;-0.674;2022-07-10T00:10:04;2.03;;;1.10;;
35689;SDS011;26977;44.830;-0.674;2022-07-10T00:12:30;7.30;;;1.30;;
35689;SDS011;26977;44.830;-0.674;2022-07-10T00:14:56;5.30;;;1.30;;
35689;SDS011;26977;44.830;-0.674;2022-07-10T00:17:21;5.10;;;1.70;;
35689;SDS011;26977;44.830;-0.674;2022-07-10T00:19:47;2.88;;;1.20;;
35689;SDS011;26977;44.830;-0.674;2022-07-10T00:22:13;2.53;;;1.25;;
35689;SDS011;26977;44.830;-0.674;2022-07-10T00:24:38;3.35;;;1.52;;
35689;SDS011;26977;44.830;-0.674;2022-07-10T00:27:04;3.47;;;1.27;;
35689;SDS011;26977;44.830;-0.674;2022-07-10T00:29:30;3.90;;;1.58;;
35689;SDS011;26977;44.830;-0.674;2022-07-10T00:31:56;3.15;;;1.20;;
35689;SDS011;26977;44.830;-0.674;2022-07-10T00:34:21;2.45;;;1.48;;
35689;SDS011;26977;44.830;-0.674;2022-07-10T00:36:47;2.92;;;1.30;;
35689;SDS011;26977;44.830;-0.674;2022-07-10T00:39:13;6.00;;;1.40;;
35689;SDS011;26977;44.830;-0.674;2022-07-10T00:41:38;3.95;;;1.60;;
35689;SDS011;26977;44.830;-0.674;2022-07-10T00:44:04;3.53;;;1.60;;
35689;SDS011;26977;44.830;-0.674;2022-07-10T00:46:30;3.08;;;1.42;;
35689;SDS011;26977;44.830;-0.674;2022-07-10T00:48:57;4.88;;;1.65;;
35689;SDS011;26977;44.830;-0.674;2022-07-10T00:51:27;5.18;;;1.60;;
35689;SDS011;26977;44.830;-0.674;2022-07-10T00:53:54;4.13;;;1.55;;
35689;SDS011;26977;44.830;-0.674;2022-07-10T00:56:25;3.08;;;1.40;;
35689;SDS011;26977;44.830;-0.674;2022-07-10T00:58:52;6.07;;;1.50;;
35689;SDS011;26977;44.830;-0.674;2022-07-10T01:01:19;5.70;;;1.70;;
35689;SDS011;26977;44.830;-0.674;2022-07-10T01:03:45;3.30;;;1.25;;
35689;SDS011;26977;44.830;-0.674;2022-07-10T01:06:12;3.55;;;1.63;;
35689;SDS011;26977;44.830;-0.674;2022-07-10T01:08:39;3.33;;;1.40;;
35689;SDS011;26977;44.830;-0.674;2022-07-10T01:11:05;3.13;;;1.48;;
35689;SDS011;26977;44.830;-0.674;2022-07-10T01:13:31;5.65;;;1.50;;
35689;SDS011;26977;44.830;-0.674;2022-07-10T01:15:57;4.57;;;2.28;;
35689;SDS011;26977;44.830;-0.674;2022-07-10T01:18:24;3.80;;;1.95;;
35689;SDS011;26977;44.830;-0.674;2022-07-10T01:20:57;4.82;;;3.00;;
35689;SDS011;26977;44.830;-0.674;2022-07-10T01:23:22;5.78;;;2.95;;
35689;SDS011;26977;44.830;-0.674;2022-07-10T01:25:49;6.10;;;3.70;;
35689;SDS011;26977;44.830;-0.674;2022-07-10T01:28:18;12.05;;;3.70;;
35689;SDS011;26977;44.830;-0.674;2022-07-10T01:30:45;6.25;;;4.25;;
35689;SDS011;26977;44.830;-0.674;2022-07-10T01:33:11;8.45;;;4.50;;
35689;SDS011;26977;44.830;-0.674;2022-07-10T01:35:37;11.07;;;4.50;;
35689;SDS011;26977;44.830;-0.674;2022-07-10T01:38:03;7.57;;;4.30;;
35689;SDS011;26977;44.830;-0.674;2022-07-10T01:40:29;3.75;;;2.88;;
35689;SDS011;26977;44.830;-0.674;2022-07-10T01:42:54;5.97;;;2.97;;
35689;SDS011;26977;44.830;-0.674;2022-07-10T01:45:20;6.53;;;2.15;;
35689;SDS011;26977;44.830;-0.674;2022-07-10T01:47:46;3.05;;;1.95;;
35689;SDS011;26977;44.830;-0.674;2022-07-10T01:50:12;6.00;;;2.05;;
35689;SDS011;26977;44.830;-0.674;2022-07-10T01:52:38;4.65;;;2.20;;
35689;SDS011;26977;44.830;-0.674;2022-07-10T01:55:04;2.92;;;1.90;;
35689;SDS011;26977;44.830;-0.674;2022-07-10T01:57:30;3.83;;;1.60;;
35689;SDS011;26977;44.830;-0.674;2022-07-10T01:59:56;4.13;;;1.73;;
35689;SDS011;26977;44.830;-0.674;2022-07-10T02:02:22;6.05;;;1.90;;
35689;SDS011;26977;44.830;-0.674;2022-07-10T02:04:50;4.35;;;1.80;;
35689;SDS011;26977;44.830;-0.674;2022-07-10T02:07:17;3.25;;;1.52;;
35689;SDS011;26977;44.830;-0.674;2022-07-10T02:09:44;3.95;;;1.60;;
35689;SDS011;26977;44.830;-0.674;2022-07-10T02:12:10;5.05;;;1.77;;
35689;SDS011;26977;44.830;-0.674;2022-07-10T02:14:38;5.03;;;2.05;;
35689;SDS011;26977;44.830;-0.674;2022-07-10T02:17:04;3.88;;;1.67;;
35689;SDS011;26977;44.830;-0.674;2022-07-10T02:19:31;4.05;;;2.17;;
35689;SDS011;26977;44.830;-0.674;2022-07-10T02:21:57;4.88;;;1.98;;
35689;SDS011;26977;44.830;-0.674;2022-07-10T02:24:22;7.22;;;1.95;;
35689;SDS011;26977;44.830;-0.674;2022-07-10T02:26:48;4.65;;;1.70;;
35689;SDS011;26977;44.830;-0.674;2022-07-10T02:29:14;2.92;;;2.05;;
35689;SDS011;26977;44.830;-0.674;2022-07-10T02:31:40;4.07;;;1.73;;
35689;SDS011;26977;44.830;-0.674;2022-07-10T02:34:07;4.70;;;2.33;;
35689;SDS011;26977;44.830;-0.674;2022-07-10T02:36:34;4.53;;;1.80;;
35689;SDS011;26977;44.830;-0.674;2022-07-10T02:39:00;5.47;;;1.58;;
35689;SDS011;26977;44.830;-0.674;2022-07-10T02:41:26;5.00;;;1.90;;
35689;SDS011;26977;44.830;-0.674;2022-07-10T02:43:52;3.30;;;1.83;;
35689;SDS011;26977;44.830;-0.674;2022-07-10T02:46:17;4.65;;;1.90;;
35689;SDS011;26977;44.830;-0.674;2022-07-10T02:48:43;5.78;;;1.90;;
35689;SDS011;26977;44.830;-0.674;2022-07-10T02:51:09;3.13;;;1.73;;
35689;SDS011;26977;44.830;-0.674;2022-07-10T02:53:34;8.52;;;2.10;;
35689;SDS011;26977;44.830;-0.674;2022-07-10T02:56:00;3.70;;;1.90;;
35689;SDS011;26977;44.830;-0.674;2022-07-10T02:58:27;3.45;;;1.83;;
35689;SDS011;26977;44.830;-0.674;2022-07-10T03:00:52;3.95;;;2.00;;
35689;SDS011;26977;44.830;-0.674;2022-07-10T03:03:18;5.00;;;1.77;;
35689;SDS011;26977;44.830;-0.674;2022-07-10T03:05:44;4.00;;;1.88;;
35689;SDS011;26977;44.830;-0.674;2022-07-10T03:08:10;4.20;;;1.65;;
35689;SDS011;26977;44.830;-0.674;2022-07-10T03:10:36;3.22;;;1.75;;
35689;SDS011;26977;44.830;-0.674;2022-07-10T03:13:02;6.40;;;1.90;;
35689;SDS011;26977;44.830;-0.674;2022-07-10T03:15:28;6.70;;;2.10;;
35689;SDS011;26977;44.830;-0.674;2022-07-10T03:17:54;5.30;;;2.17;;
35689;SDS011;26977;44.830;-0.674;2022-07-10T03:20:19;3.05;;;2.00;;
35689;SDS011;26977;44.830;-0.674;2022-07-10T03:22:45;6.63;;;2.05;;
35689;SDS011;26977;44.830;-0.674;2022-07-10T03:25:11;5.25;;;1.90;;
35689;SDS011;26977;44.830;-0.674;2022-07-10T03:27:38;2.03;;;1.63;;
35689;SDS011;26977;44.830;-0.674;2022-07-10T03:30:04;3.03;;;1.73;;
35689;SDS011;26977;44.830;-0.674;2022-07-10T03:32:30;4.38;;;1.92;;
35689;SDS011;26977;44.830;-0.674;2022-07-10T03:34:56;4.15;;;2.00;;
35689;SDS011;26977;44.830;-0.674;2022-07-10T03:37:22;5.05;;;1.80;;
35689;SDS011;26977;44.830;-0.674;2022-07-10T03:39:48;5.20;;;1.75;;
35689;SDS011;26977;44.830;-0.674;2022-07-10T03:42:13;3.08;;;1.77;;
35689;SDS011;26977;44.830;-0.674;2022-07-10T03:44:39;3.72;;;2.05;;
35689;SDS011;26977;44.830;-0.674;2022-07-10T03:47:05;5.45;;;2.03;;
35689;SDS011;26977;44.830;-0.674;2022-07-10T03:49:31;2.75;;;1.80;;
35689;SDS011;26977;44.830;-0.674;2022-07-10T03:52:00;4.32;;;1.92;;
35689;SDS011;26977;44.830;-0.674;2022-07-10T03:54:28;7.35;;;2.03;;
35689;SDS011;26977;44.830;-0.674;2022-07-10T03:56:54;6.68;;;1.98;;
35689;SDS011;26977;44.830;-0.674;2022-07-10T03:59:39;4.63;;;1.92;;
35689;SDS011;26977;44.830;-0.674;2022-07-10T04:02:05;7.18;;;2.38;;
35689;SDS011;26977;44.830;-0.674;2022-07-10T04:04:31;4.63;;;2.08;;
35689;SDS011;26977;44.830;-0.674;2022-07-10T04:06:56;6.75;;;2.15;;
35689;SDS011;26977;44.830;-0.674;2022-07-10T04:09:22;2.83;;;1.80;;
35689;SDS011;26977;44.830;-0.674;2022-07-10T04:11:48;6.32;;;2.03;;
35689;SDS011;26977;44.830;-0.674;2022-07-10T04:14:13;3.60;;;2.20;;
35689;SDS011;26977;44.830;-0.674;2022-07-10T04:16:39;3.88;;;1.77;;
35689;SDS011;26977;44.830;-0.674;2022-07-10T04:19:05;5.15;;;2.17;;
35689;SDS011;26977;44.830;-0.674;2022-07-10T04:21:30;4.93;;;2.38;;
35689;SDS011;26977;44.830;-0.674;2022-07-10T04:23:56;4.90;;;2.00;;
35689;SDS011;26977;44.830;-0.674;2022-07-10T04:26:21;6.03;;;2.03;;
35689;SDS011;26977;44.830;-0.674;2022-07-10T04:28:47;5.07;;;2.25;;
35689;SDS011;26977;44.830;-0.674;2022-07-10T04:31:13;3.28;;;2.30;;
35689;SDS011;26977;44.830;-0.674;2022-07-10T04:33:38;7.97;;;2.58;;
35689;SDS011;26977;44.830;-0.674;2022-07-10T04:36:04;3.63;;;2.08;;
35689;SDS011;26977;44.830;-0.674;2022-07-10T04:38:30;4.30;;;2.00;;
35689;SDS011;26977;44.830;-0.674;2022-07-10T04:40:57;4.10;;;2.25;;
35689;SDS011;26977;44.830;-0.674;2022-07-10T04:43:23;6.90;;;2.35;;
35689;SDS011;26977;44.830;-0.674;2022-07-10T04:45:49;4.97;;;2.45;;
35689;SDS011;26977;44.830;-0.674;2022-07-10T04:48:14;4.93;;;2.00;;
35689;SDS011;26977;44.830;-0.674;2022-07-10T04:50:40;3.15;;;2.28;;
35689;SDS011;26977;44.830;-0.674;2022-07-10T04:53:06;4.38;;;2.17;;
35689;SDS011;26977;44.830;-0.674;2022-07-10T04:55:31;5.25;;;2.38;;
35689;SDS011;26977;44.830;-0.674;2022-07-10T04:57:57;10.35;;;2.25;;
35689;SDS011;26977;44.830;-0.674;2022-07-10T05:00:23;5.18;;;2.33;;
35689;SDS011;26977;44.830;-0.674;2022-07-10T05:02:49;5.53;;;2.10;;
35689;SDS011;26977;44.830;-0.674;2022-07-10T05:05:15;4.78;;;2.55;;
35689;SDS011;26977;44.830;-0.674;2022-07-10T05:07:41;5.47;;;2.50;;
35689;SDS011;26977;44.830;-0.674;2022-07-10T05:10:06;7.90;;;2.60;;
35689;SDS011;26977;44.830;-0.674;2022-07-10T05:12:32;5.18;;;2.40;;
35689;SDS011;26977;44.830;-0.674;2022-07-10T05:14:58;3.88;;;2.30;;
35689;SDS011;26977;44.830;-0.674;2022-07-10T05:17:25;6.55;;;2.30;;
35689;SDS011;26977;44.830;-0.674;2022-07-10T05:19:52;4.35;;;2.42;;
35689;SDS011;26977;44.830;-0.674;2022-07-10T05:22:18;5.85;;;2.55;;
35689;SDS011;26977;44.830;-0.674;2022-07-10T05:24:44;3.22;;;2.30;;
35689;SDS011;26977;44.830;-0.674;2022-07-10T05:27:10;4.47;;;2.20;;
35689;SDS011;26977;44.830;-0.674;2022-07-10T05:29:35;12.25;;;2.60;;
35689;SDS011;26977;44.830;-0.674;2022-07-10T05:32:01;5.75;;;2.40;;
35689;SDS011;26977;44.830;-0.674;2022-07-10T05:34:27;5.97;;;2.25;;
35689;SDS011;26977;44.830;-0.674;2022-07-10T05:36:53;2.88;;;2.17;;
35689;SDS011;26977;44.830;-0.674;2022-07-10T05:39:18;5.63;;;2.47;;
35689;SDS011;26977;44.830;-0.674;2022-07-10T05:41:44;6.47;;;2.45;;
35689;SDS011;26977;44.830;-0.674;2022-07-10T05:44:10;4.15;;;2.17;;
35689;SDS011;26977;44.830;-0.674;2022-07-10T05:46:35;5.38;;;2.42;;
35689;SDS011;26977;44.830;-0.674;2022-07-10T05:49:01;4.93;;;2.42;;
35689;SDS011;26977;44.830;-0.674;2022-07-10T05:51:27;5.75;;;2.20;;
35689;SDS011;26977;44.830;-0.674;2022-07-10T05:53:52;5.30;;;2.15;;
35689;SDS011;26977;44.830;-0.674;2022-07-10T05:56:18;4.53;;;2.10;;
35689;SDS011;26977;44.830;-0.674;2022-07-10T05:58:44;5.97;;;1.90;;
35689;SDS011;26977;44.830;-0.674;2022-07-10T06:01:09;2.80;;;1.90;;
35689;SDS011;26977;44.830;-0.674;2022-07-10T06:03:35;3.40;;;2.28;;
35689;SDS011;26977;44.830;-0.674;2022-07-10T06:06:00;3.13;;;1.60;;
35689;SDS011;26977;44.830;-0.674;2022-07-10T06:08:26;6.38;;;2.00;;
35689;SDS011;26977;44.830;-0.674;2022-07-10T06:10:52;5.10;;;1.88;;
35689;SDS011;26977;44.830;-0.674;2022-07-10T06:13:18;7.75;;;2.20;;
35689;SDS011;26977;44.830;-0.674;2022-07-10T06:15:43;5.18;;;1.98;;
35689;SDS011;26977;44.830;-0.674;2022-07-10T06:18:09;5.88;;;1.75;;
35689;SDS011;26977;44.830;-0.674;2022-07-10T06:20:35;3.97;;;2.15;;
35689;SDS011;26977;44.830;-0.674;2022-07-10T06:23:01;5.60;;;2.15;;
35689;SDS011;26977;44.830;-0.674;2022-07-10T06:25:26;6.25;;;2.05;;
35689;SDS011;26977;44.830;-0.674;2022-07-10T06:27:52;3.88;;;1.95;;
35689;SDS011;26977;44.830;-0.674;2022-07-10T06:30:18;4.38;;;1.73;;
35689;SDS011;26977;44.830;-0.674;2022-07-10T06:32:44;7.72;;;2.00;;
35689;SDS011;26977;44.830;-0.674;2022-07-10T06:35:09;5.35;;;1.70;;
35689;SDS011;26977;44.830;-0.674;2022-07-10T06:37:35;3.95;;;1.80;;
35689;SDS011;26977;44.830;-0.674;2022-07-10T06:40:01;3.50;;;1.88;;
35689;SDS011;26977;44.830;-0.674;2022-07-10T06:42:27;5.53;;;1.65;;
35689;SDS011;26977;44.830;-0.674;2022-07-10T06:44:53;3.08;;;1.92;;
35689;SDS011;26977;44.830;-0.674;2022-07-10T06:47:19;4.10;;;1.75;;
35689;SDS011;26977;44.830;-0.674;2022-07-10T06:50:04;5.35;;;1.98;;
35689;SDS011;26977;44.830;-0.674;2022-07-10T06:52:34;4.20;;;2.00;;
35689;SDS011;26977;44.830;-0.674;2022-07-10T06:55:00;5.22;;;1.73;;
35689;SDS011;26977;44.830;-0.674;2022-07-10T06:57:26;3.17;;;1.65;;
35689;SDS011;26977;44.830;-0.674;2022-07-10T06:59:52;5.15;;;1.92;;
35689;SDS011;26977;44.830;-0.674;2022-07-10T07:02:18;4.60;;;2.00;;
35689;SDS011;26977;44.830;-0.674;2022-07-10T07:04:44;7.18;;;2.47;;
35689;SDS011;26977;44.830;-0.674;2022-07-10T07:07:11;3.72;;;1.73;;
35689;SDS011;26977;44.830;-0.674;2022-07-10T07:09:37;3.00;;;1.80;;
35689;SDS011;26977;44.830;-0.674;2022-07-10T07:12:03;4.25;;;1.80;;
35689;SDS011;26977;44.830;-0.674;2022-07-10T07:14:29;3.33;;;1.60;;
35689;SDS011;26977;44.830;-0.674;2022-07-10T07:16:55;4.95;;;1.70;;
35689;SDS011;26977;44.830;-0.674;2022-07-10T07:19:31;5.25;;;1.73;;
35689;SDS011;26977;44.830;-0.674;2022-07-10T07:22:17;5.60;;;1.90;;
35689;SDS011;26977;44.830;-0.674;2022-07-10T07:25:06;4.90;;;1.90;;
35689;SDS011;26977;44.830;-0.674;2022-07-10T07:27:33;4.05;;;1.90;;
35689;SDS011;26977;44.830;-0.674;2022-07-10T07:30:10;4.32;;;1.65;;
35689;SDS011;26977;44.830;-0.674;2022-07-10T07:32:40;8.45;;;1.90;;
35689;SDS011;26977;44.830;-0.674;2022-07-10T07:35:06;3.50;;;1.70;;
35689;SDS011;26977;44.830;-0.674;2022-07-10T07:37:42;4.20;;;1.67;;
35689;SDS011;26977;44.830;-0.674;2022-07-10T07:40:10;6.03;;;1.92;;
35689;SDS011;26977;44.830;-0.674;2022-07-10T07:42:37;5.25;;;1.60;;
35689;SDS011;26977;44.830;-0.674;2022-07-10T07:45:04;5.18;;;1.90;;
35689;SDS011;26977;44.830;-0.674;2022-07-10T07:47:30;4.40;;;1.92;;
35689;SDS011;26977;44.830;-0.674;2022-07-10T07:49:56;5.50;;;1.73;;
35689;SDS011;26977;44.830;-0.674;2022-07-10T07:52:26;7.00;;;1.70;;
35689;SDS011;26977;44.830;-0.674;2022-07-10T07:54:51;5.88;;;1.92;;
35689;SDS011;26977;44.830;-0.674;2022-07-10T07:57:17;4.15;;;1.77;;
35689;SDS011;26977;44.830;-0.674;2022-07-10T07:59:43;4.85;;;1.38;;
35689;SDS011;26977;44.830;-0.674;2022-07-10T08:02:09;2.95;;;1.13;;
35689;SDS011;26977;44.830;-0.674;2022-07-10T08:04:34;3.63;;;1.48;;
35689;SDS011;26977;44.830;-0.674;2022-07-10T08:07:00;3.50;;;1.50;;
35689;SDS011;26977;44.830;-0.674;2022-07-10T08:09:27;2.95;;;1.50;;
35689;SDS011;26977;44.830;-0.674;2022-07-10T08:11:52;3.08;;;1.30;;
35689;SDS011;26977;44.830;-0.674;2022-07-10T08:14:18;6.57;;;1.33;;
35689;SDS011;26977;44.830;-0.674;2022-07-10T08:16:44;4.25;;;1.30;;
35689;SDS011;26977;44.830;-0.674;2022-07-10T08:19:09;3.03;;;1.40;;
35689;SDS011;26977;44.830;-0.674;2022-07-10T08:21:35;3.42;;;1.33;;
35689;SDS011;26977;44.830;-0.674;2022-07-10T08:24:01;6.47;;;1.63;;
35689;SDS011;26977;44.830;-0.674;2022-07-10T08:26:26;8.13;;;1.52;;
35689;SDS011;26977;44.830;-0.674;2022-07-10T08:28:52;5.35;;;1.88;;
35689;SDS011;26977;44.830;-0.674;2022-07-10T08:31:18;6.57;;;1.40;;
35689;SDS011;26977;44.830;-0.674;2022-07-10T08:33:43;4.13;;;1.20;;
35689;SDS011;26977;44.830;-0.674;2022-07-10T08:36:09;8.63;;;1.50;;
35689;SDS011;26977;44.830;-0.674;2022-07-10T08:38:35;3.90;;;1.02;;
35689;SDS011;26977;44.830;-0.674;2022-07-10T08:41:00;4.28;;;1.15;;
35689;SDS011;26977;44.830;-0.674;2022-07-10T08:43:30;3.63;;;1.40;;
35689;SDS011;26977;44.830;-0.674;2022-07-10T08:45:56;5.30;;;1.20;;
35689;SDS011;26977;44.830;-0.674;2022-07-10T08:48:24;3.20;;;1.17;;
35689;SDS011;26977;44.830;-0.674;2022-07-10T08:50:53;3.72;;;1.48;;
35689;SDS011;26977;44.830;-0.674;2022-07-10T08:53:25;7.38;;;1.75;;
35689;SDS011;26977;44.830;-0.674;2022-07-10T08:55:56;4.53;;;1.27;;
35689;SDS011;26977;44.830;-0.674;2022-07-10T08:58:26;3.50;;;1.30;;
35689;SDS011;26977;44.830;-0.674;2022-07-10T09:00:52;4.18;;;1.27;;
35689;SDS011;26977;44.830;-0.674;2022-07-10T09:03:18;4.97;;;1.25;;
35689;SDS011;26977;44.830;-0.674;2022-07-10T09:05:44;2.65;;;1.00;;
35689;SDS011;26977;44.830;-0.674;2022-07-10T09:08:28;4.97;;;1.55;;
35689;SDS011;26977;44.830;-0.674;2022-07-10T09:11:15;5.55;;;1.13;;
35689;SDS011;26977;44.830;-0.674;2022-07-10T09:13:50;5.80;;;1.10;;
35689;SDS011;26977;44.830;-0.674;2022-07-10T09:16:27;4.00;;;1.10;;
35689;SDS011;26977;44.830;-0.674;2022-07-10T09:18:55;4.47;;;1.30;;
35689;SDS011;26977;44.830;-0.674;2022-07-10T09:21:21;5.50;;;1.35;;
35689;SDS011;26977;44.830;-0.674;2022-07-10T09:23:47;6.50;;;1.20;;
35689;SDS011;26977;44.830;-0.674;2022-07-10T09:26:14;4.15;;;1.30;;
35689;SDS011;26977;44.830;-0.674;2022-07-10T09:28:40;3.75;;;1.00;;
35689;SDS011;26977;44.830;-0.674;2022-07-10T09:31:05;2.60;;;1.15;;
35689;SDS011;26977;44.830;-0.674;2022-07-10T09:33:31;5.82;;;1.20;;
35689;SDS011;26977;44.830;-0.674;2022-07-10T09:41:11;4.07;;;1.27;;
35689;SDS011;26977;44.830;-0.674;2022-07-10T09:44:10;4.53;;;1.30;;
35689;SDS011;26977;44.830;-0.674;2022-07-10T09:46:33;4.43;;;1.30;;
35689;SDS011;26977;44.830;-0.674;2022-07-10T09:49:12;5.63;;;1.30;;
35689;SDS011;26977;44.830;-0.674;2022-07-10T09:54:07;3.78;;;0.90;;
35689;SDS011;26977;44.830;-0.674;2022-07-10T09:59:03;3.55;;;1.10;;
35689;SDS011;26977;44.830;-0.674;2022-07-10T10:01:33;3.80;;;1.20;;
35689;SDS011;26977;44.830;-0.674;2022-07-10T10:04:01;6.30;;;1.23;;
35689;SDS011;26977;44.830;-0.674;2022-07-10T10:06:29;4.00;;;1.33;;
35689;SDS011;26977;44.830;-0.674;2022-07-10T10:08:57;6.18;;;1.42;;
35689;SDS011;26977;44.830;-0.674;2022-07-10T10:11:25;4.60;;;1.17;;
35689;SDS011;26977;44.830;-0.674;2022-07-10T10:13:52;4.50;;;1.10;;
35689;SDS011;26977;44.830;-0.674;2022-07-10T10:16:21;4.40;;;0.95;;
35689;SDS011;26977;44.830;-0.674;2022-07-10T10:18:47;4.90;;;1.40;;
35689;SDS011;26977;44.830;-0.674;2022-07-10T10:21:34;5.40;;;1.10;;
35689;SDS011;26977;44.830;-0.674;2022-07-10T10:24:01;4.43;;;1.20;;
35689;SDS011;26977;44.830;-0.674;2022-07-10T10:26:27;3.70;;;1.27;;
35689;SDS011;26977;44.830;-0.674;2022-07-10T10:28:57;3.30;;;1.33;;
35689;SDS011;26977;44.830;-0.674;2022-07-10T10:31:25;3.75;;;1.05;;
35689;SDS011;26977;44.830;-0.674;2022-07-10T10:33:56;3.35;;;1.10;;
35689;SDS011;26977;44.830;-0.674;2022-07-10T10:39:13;2.92;;;1.08;;
35689;SDS011;26977;44.830;-0.674;2022-07-10T10:41:42;6.43;;;1.40;;
35689;SDS011;26977;44.830;-0.674;2022-07-10T10:49:16;3.00;;;0.98;;
35689;SDS011;26977;44.830;-0.674;2022-07-10T10:51:59;3.30;;;1.20;;
35689;SDS011;26977;44.830;-0.674;2022-07-10T10:54:28;2.78;;;0.90;;
35689;SDS011;26977;44.830;-0.674;2022-07-10T10:57:13;4.65;;;1.20;;
35689;SDS011;26977;44.830;-0.674;2022-07-10T10:59:47;5.30;;;1.17;;
35689;SDS011;26977;44.830;-0.674;2022-07-10T11:02:46;6.32;;;1.33;;
35689;SDS011;26977;44.830;-0.674;2022-07-10T11:10:26;2.58;;;1.00;;
35689;SDS011;26977;44.830;-0.674;2022-07-10T11:15:43;7.32;;;1.25;;
35689;SDS011;26977;44.830;-0.674;2022-07-10T11:20:53;2.92;;;1.05;;
35689;SDS011;26977;44.830;-0.674;2022-07-10T11:26:07;2.90;;;1.23;;
35689;SDS011;26977;44.830;-0.674;2022-07-10T11:31:20;5.28;;;1.15;;
35689;SDS011;26977;44.830;-0.674;2022-07-10T11:33:48;4.63;;;1.20;;
35689;SDS011;26977;44.830;-0.674;2022-07-10T11:38:43;3.42;;;0.93;;
35689;SDS011;26977;44.830;-0.674;2022-07-10T11:41:16;3.30;;;1.05;;
35689;SDS011;26977;44.830;-0.674;2022-07-10T11:43:57;5.75;;;1.20;;
35689;SDS011;26977;44.830;-0.674;2022-07-10T11:46:25;3.25;;;1.10;;
35689;SDS011;26977;44.830;-0.674;2022-07-10T11:48:55;2.42;;;1.25;;
35689;SDS011;26977;44.830;-0.674;2022-07-10T11:51:55;3.97;;;1.00;;
35689;SDS011;26977;44.830;-0.674;2022-07-10T11:54:14;4.22;;;1.10;;
35689;SDS011;26977;44.830;-0.674;2022-07-10T11:56:46;5.90;;;1.30;;
35689;SDS011;26977;44.830;-0.674;2022-07-10T11:59:14;2.00;;;1.02;;
35689;SDS011;26977;44.830;-0.674;2022-07-10T12:01:42;2.90;;;1.00;;
35689;SDS011;26977;44.830;-0.674;2022-07-10T12:04:10;2.63;;;1.10;;
35689;SDS011;26977;44.830;-0.674;2022-07-10T12:06:38;2.22;;;1.05;;
35689;SDS011;26977;44.830;-0.674;2022-07-10T12:09:07;2.25;;;0.90;;
35689;SDS011;26977;44.830;-0.674;2022-07-10T12:11:40;2.53;;;1.00;;
35689;SDS011;26977;44.830;-0.674;2022-07-10T12:14:09;4.13;;;1.17;;
35689;SDS011;26977;44.830;-0.674;2022-07-10T12:16:35;4.20;;;1.30;;
35689;SDS011;26977;44.830;-0.674;2022-07-10T12:19:01;4.97;;;1.30;;
35689;SDS011;26977;44.830;-0.674;2022-07-10T12:21:28;7.93;;;1.38;;
35689;SDS011;26977;44.830;-0.674;2022-07-10T12:23:54;4.57;;;1.30;;
35689;SDS011;26977;44.830;-0.674;2022-07-10T12:26:21;3.17;;;1.25;;
35689;SDS011;26977;44.830;-0.674;2022-07-10T12:28:48;4.15;;;1.08;;
35689;SDS011;26977;44.830;-0.674;2022-07-10T12:31:23;10.25;;;1.10;;
35689;SDS011;26977;44.830;-0.674;2022-07-10T12:33:50;5.82;;;1.38;;
35689;SDS011;26977;44.830;-0.674;2022-07-10T12:36:17;4.47;;;1.35;;
35689;SDS011;26977;44.830;-0.674;2022-07-10T12:38:52;5.90;;;1.52;;
35689;SDS011;26977;44.830;-0.674;2022-07-10T12:41:19;3.53;;;1.50;;
35689;SDS011;26977;44.830;-0.674;2022-07-10T12:43:49;2.72;;;1.38;;
35689;SDS011;26977;44.830;-0.674;2022-07-10T12:46:21;4.88;;;1.25;;
35689;SDS011;26977;44.830;-0.674;2022-07-10T12:51:44;2.13;;;1.05;;
35689;SDS011;26977;44.830;-0.674;2022-07-10T12:56:58;2.15;;;1.30;;
35689;SDS011;26977;44.830;-0.674;2022-07-10T12:59:25;3.80;;;1.08;;
35689;SDS011;26977;44.830;-0.674;2022-07-10T13:01:53;6.18;;;1.48;;
35689;SDS011;26977;44.830;-0.674;2022-07-10T13:04:24;6.85;;;1.33;;
35689;SDS011;26977;44.830;-0.674;2022-07-10T13:06:52;3.28;;;1.25;;
35689;SDS011;26977;44.830;-0.674;2022-07-10T13:09:22;2.95;;;0.90;;
35689;SDS011;26977;44.830;-0.674;2022-07-10T13:11:50;3.10;;;1.30;;
35689;SDS011;26977;44.830;-0.674;2022-07-10T13:14:17;5.07;;;1.33;;
35689;SDS011;26977;44.830;-0.674;2022-07-10T13:16:42;3.60;;;1.38;;
35689;SDS011;26977;44.830;-0.674;2022-07-10T13:19:08;2.38;;;1.13;;
35689;SDS011;26977;44.830;-0.674;2022-07-10T13:21:34;4.88;;;1.20;;
35689;SDS011;26977;44.830;-0.674;2022-07-10T13:24:00;4.32;;;1.10;;
35689;SDS011;26977;44.830;-0.674;2022-07-10T13:26:25;3.85;;;1.23;;
35689;SDS011;26977;44.830;-0.674;2022-07-10T13:28:54;7.03;;;1.05;;
35689;SDS011;26977;44.830;-0.674;2022-07-10T13:31:20;4.82;;;1.10;;
35689;SDS011;26977;44.830;-0.674;2022-07-10T13:33:46;2.88;;;1.20;;
35689;SDS011;26977;44.830;-0.674;2022-07-10T13:36:11;4.30;;;1.17;;
35689;SDS011;26977;44.830;-0.674;2022-07-10T13:38:37;3.25;;;1.10;;
35689;SDS011;26977;44.830;-0.674;2022-07-10T13:41:03;6.68;;;1.10;;
35689;SDS011;26977;44.830;-0.674;2022-07-10T13:43:29;4.25;;;1.35;;
35689;SDS011;26977;44.830;-0.674;2022-07-10T13:45:58;2.88;;;1.10;;
35689;SDS011;26977;44.830;-0.674;2022-07-10T13:48:25;6.47;;;1.00;;
35689;SDS011;26977;44.830;-0.674;2022-07-10T13:50:51;3.45;;;1.30;;
35689;SDS011;26977;44.830;-0.674;2022-07-10T13:53:17;6.75;;;1.17;;
35689;SDS011;26977;44.830;-0.674;2022-07-10T13:55:44;4.35;;;1.08;;
35689;SDS011;26977;44.830;-0.674;2022-07-10T13:58:10;4.43;;;1.13;;
35689;SDS011;26977;44.830;-0.674;2022-07-10T14:00:37;1.92;;;1.10;;
35689;SDS011;26977;44.830;-0.674;2022-07-10T14:03:03;2.78;;;1.20;;
35689;SDS011;26977;44.830;-0.674;2022-07-10T14:05:29;2.50;;;1.33;;
35689;SDS011;26977;44.830;-0.674;2022-07-10T14:07:55;2.30;;;1.10;;
35689;SDS011;26977;44.830;-0.674;2022-07-10T14:10:22;3.55;;;1.20;;
35689;SDS011;26977;44.830;-0.674;2022-07-10T14:12:48;4.32;;;1.20;;
35689;SDS011;26977;44.830;-0.674;2022-07-10T14:15:14;2.85;;;1.30;;
35689;SDS011;26977;44.830;-0.674;2022-07-10T14:17:40;2.92;;;1.10;;
35689;SDS011;26977;44.830;-0.674;2022-07-10T14:20:05;2.53;;;1.23;;
35689;SDS011;26977;44.830;-0.674;2022-07-10T14:22:32;2.03;;;1.20;;
35689;SDS011;26977;44.830;-0.674;2022-07-10T14:24:58;2.05;;;1.17;;
35689;SDS011;26977;44.830;-0.674;2022-07-10T14:27:25;2.83;;;1.10;;
35689;SDS011;26977;44.830;-0.674;2022-07-10T14:29:52;1.80;;;1.30;;
35689;SDS011;26977;44.830;-0.674;2022-07-10T14:32:18;4.43;;;1.38;;
35689;SDS011;26977;44.830;-0.674;2022-07-10T14:34:44;2.83;;;1.10;;
35689;SDS011;26977;44.830;-0.674;2022-07-10T14:37:09;3.10;;;1.20;;
35689;SDS011;26977;44.830;-0.674;2022-07-10T14:39:35;1.90;;;1.20;;
35689;SDS011;26977;44.830;-0.674;2022-07-10T14:42:02;2.75;;;1.38;;
35689;SDS011;26977;44.830;-0.674;2022-07-10T14:44:29;4.38;;;1.15;;
35689;SDS011;26977;44.830;-0.674;2022-07-10T14:46:55;3.17;;;1.13;;
35689;SDS011;26977;44.830;-0.674;2022-07-10T14:49:21;2.08;;;1.10;;
35689;SDS011;26977;44.830;-0.674;2022-07-10T14:51:47;4.30;;;1.35;;
35689;SDS011;26977;44.830;-0.674;2022-07-10T14:54:12;3.42;;;1.15;;
35689;SDS011;26977;44.830;-0.674;2022-07-10T14:56:38;4.05;;;1.35;;
35689;SDS011;26977;44.830;-0.674;2022-07-10T14:59:04;3.20;;;1.08;;
35689;SDS011;26977;44.830;-0.674;2022-07-10T15:01:29;2.45;;;1.10;;
35689;SDS011;26977;44.830;-0.674;2022-07-10T15:03:55;2.05;;;1.20;;
35689;SDS011;26977;44.830;-0.674;2022-07-10T15:06:22;4.30;;;1.15;;
35689;SDS011;26977;44.830;-0.674;2022-07-10T15:08:48;4.07;;;1.30;;
35689;SDS011;26977;44.830;-0.674;2022-07-10T15:11:16;1.75;;;1.17;;
35689;SDS011;26977;44.830;-0.674;2022-07-10T15:13:42;3.42;;;1.15;;
35689;SDS011;26977;44.830;-0.674;2022-07-10T15:16:08;3.72;;;1.17;;